| time (UTC) | temp F | wind direction | speed MPH | gust MPH | rain 1hr in | rain 24hr in | rain mn in | humidity % | barometer mb |
| 20260903064516 | 81 | 111 | 2.0 | 6.0 | 0.00 | 0.00 | 0.00 | 74 | 1016.6 |
| 20260903063023 | 82 | 119 | 3.0 | 7.0 | 0.00 | 0.00 | 0.00 | 73 | 1016.7 |
| 20260903061507 | 82 | 119 | 1.0 | 3.0 | 0.00 | 0.00 | 0.00 | 71 | 1016.7 |
| 20260903060008 | 80 | 202 | 0.0 | 4.0 | 0.00 | 0.00 | 0.00 | 64 | 1016.7 |
| 20260903054511 | 79 | 186 | 2.0 | 5.0 | 0.00 | 0.00 | 0.00 | 61 | 1016.7 |
| 20260903053022 | 78 | 198 | 4.0 | 8.0 | 0.00 | 0.00 | 0.00 | 60 | 1016.6 |
| 20260903051540 | 76 | 360 | 2.0 | 5.0 | 0.00 | 0.00 | 0.00 | 72 | 1016.5 |
| 20260903050008 | 76 | 173 | 1.0 | 3.0 | 0.00 | 0.00 | 0.00 | 78 | 1016.4 |
| 20260903044514 | 77 | 360 | 1.0 | 3.0 | 0.00 | 0.00 | 0.00 | 80 | 1016.4 |
| 20260903043028 | 76 | 196 | 1.0 | 5.0 | 0.00 | 0.00 | 0.00 | 79 | 1016.4 |
| 20260903041527 | 76 | 183 | 2.0 | 5.0 | 0.00 | 0.00 | 0.00 | 75 | 1016.4 |
| 20260903040028 | 76 | 171 | 1.0 | 5.0 | 0.00 | 0.00 | 0.00 | 69 | 1016.4 |
| 20260903034504 | 76 | 360 | 2.0 | 5.0 | 0.00 | 0.00 | 0.00 | 67 | 1016.3 |
| 20260903033008 | 76 | 185 | 2.0 | 6.0 | 0.00 | 0.00 | 0.00 | 64 | 1016.1 |
| 20260903031507 | 76 | 360 | 3.0 | 5.0 | 0.00 | 0.00 | 0.00 | 64 | 1016.1 |
| 20260903030006 | 76 | 196 | 4.0 | 8.0 | 0.00 | 0.00 | 0.00 | 56 | 1016.2 |
| 20260903024506 | 76 | 360 | 4.0 | 8.0 | 0.00 | 0.00 | 0.00 | 63 | 1016.1 |
| 20260903023006 | 77 | 360 | 3.0 | 8.0 | 0.00 | 0.00 | 0.00 | 60 | 1016.3 |
| 20260903021508 | 77 | 360 | 4.0 | 8.0 | 0.00 | 0.00 | 0.00 | 61 | 1016.3 |
| 20260903020012 | 77 | 200 | 4.0 | 8.0 | 0.00 | 0.00 | 0.00 | 62 | 1016.4 |
| 20260903014505 | 76 | 360 | 5.0 | 8.0 | 0.00 | 0.00 | 0.00 | 63 | 1016.6 |
| 20260903013006 | 77 | 190 | 4.0 | 10.0 | 0.00 | 0.00 | 0.00 | 64 | 1016.5 |
| 20260903011514 | 77 | 181 | 5.0 | 8.0 | 0.00 | 0.00 | 0.00 | 61 | 1016.6 |
| 20260903010008 | 77 | 184 | 4.0 | 7.0 | 0.00 | 0.00 | 0.00 | 59 | 1016.7 |
| 20260903004508 | 78 | 360 | 2.0 | 6.0 | 0.00 | 0.00 | 0.00 | 59 | 1016.8 |
| 20260903003010 | 78 | 189 | 4.0 | 6.0 | 0.00 | 0.00 | 0.00 | 57 | 1016.8 |
| 20260903001515 | 77 | 198 | 4.0 | 9.0 | 0.00 | 0.00 | 0.00 | 55 | 1017.0 |
| 20260903000014 | 78 | 196 | 3.0 | 5.0 | 0.00 | 0.00 | 0.00 | 58 | 1017.0 |
| 20260902234520 | 77 | 188 | 2.0 | 7.0 | 0.00 | 0.00 | 0.00 | 62 | 1017.0 |
| 20260902233012 | 77 | 174 | 2.0 | 5.0 | 0.00 | 0.00 | 0.00 | 67 | 1017.2 |
| 20260902231514 | 77 | 196 | 1.0 | 5.0 | 0.00 | 0.00 | 0.00 | 67 | 1017.3 |
| 20260902230016 | 77 | 202 | 0.0 | 3.0 | 0.00 | 0.00 | 0.00 | 66 | 1017.4 |
| 20260902224521 | 77 | 182 | 0.0 | 4.0 | 0.00 | 0.00 | 0.00 | 62 | 1017.4 |
| 20260902223025 | 77 | 190 | 2.0 | 5.0 | 0.00 | 0.00 | 0.00 | 62 | 1017.3 |
| 20260902221517 | 78 | 214 | 0.0 | 2.0 | 0.00 | 0.00 | 0.00 | 61 | 1017.3 |
| 20260902220014 | 78 | 180 | 0.0 | 4.0 | 0.00 | 0.00 | 0.00 | 61 | 1017.4 |
| 20260902214504 | 78 | 199 | 2.0 | 6.0 | 0.00 | 0.00 | 0.00 | 63 | 1017.5 |
| 20260902213007 | 77 | 199 | 4.0 | 8.0 | 0.00 | 0.00 | 0.00 | 68 | 1017.6 |
| 20260902211508 | 78 | 205 | 2.0 | 6.0 | 0.00 | 0.00 | 0.00 | 69 | 1017.6 |
| 20260902210012 | 78 | 207 | 2.0 | 5.0 | 0.00 | 0.00 | 0.00 | 69 | 1017.6 |
| 20260902204521 | 78 | 202 | 5.0 | 9.0 | 0.00 | 0.00 | 0.00 | 66 | 1017.8 |
| 20260902203007 | 79 | 190 | 4.0 | 8.0 | 0.00 | 0.00 | 0.00 | 67 | 1017.8 |
| 20260902201507 | 79 | 212 | 4.0 | 8.0 | 0.00 | 0.00 | 0.00 | 66 | 1017.9 |
| 20260902200025 | 79 | 203 | 4.0 | 7.0 | 0.00 | 0.00 | 0.00 | 69 | 1018.0 |
| 20260902194522 | 79 | 192 | 1.0 | 6.0 | 0.00 | 0.00 | 0.00 | 74 | 1017.9 |
| 20260902193027 | 79 | 186 | 1.0 | 4.0 | 0.00 | 0.00 | 0.00 | 75 | 1018.1 |
| 20260902191506 | 80 | 188 | 3.0 | 6.0 | 0.00 | 0.00 | 0.00 | 74 | 1018.1 |
| 20260902190017 | 80 | 208 | 2.0 | 7.0 | 0.00 | 0.00 | 0.00 | 74 | 1017.9 |
| 20260902184518 | 80 | 206 | 2.0 | 6.0 | 0.00 | 0.00 | 0.00 | 73 | 1017.8 |
| 20260902183020 | 81 | 198 | 0.0 | 5.0 | 0.00 | 0.00 | 0.00 | 73 | 1017.6 |
| 20260902181527 | 81 | 190 | 1.0 | 6.0 | 0.00 | 0.00 | 0.00 | 72 | 1017.4 |
| 20260902180007 | 81 | 173 | 2.0 | 5.0 | 0.00 | 0.00 | 0.00 | 72 | 1017.4 |
| 20260902174511 | 82 | 192 | 2.0 | 4.0 | 0.00 | 0.00 | 0.00 | 70 | 1017.3 |
| 20260902173012 | 83 | 187 | 0.0 | 0.0 | 0.00 | 0.00 | 0.00 | 70 | 1017.2 |
| 20260902171520 | 83 | 76 | 0.0 | 0.0 | 0.00 | 0.00 | 0.00 | 69 | 1017.4 |
| 20260902170026 | 84 | 89 | 0.0 | 3.0 | 0.00 | 0.00 | 0.00 | 68 | 1017.4 |
| 20260902164510 | 84 | 81 | 1.0 | 4.0 | 0.00 | 0.00 | 0.00 | 68 | 1017.4 |
| 20260902163010 | 85 | 76 | 1.0 | 4.0 | 0.00 | 0.00 | 0.00 | 67 | 1017.5 |
| 20260902161518 | 85 | 75 | 1.0 | 4.0 | 0.00 | 0.00 | 0.00 | 67 | 1017.5 |
| 20260902160030 | 84 | 81 | 3.0 | 6.0 | 0.00 | 0.00 | 0.00 | 68 | 1017.5 |
| 20260902154531 | 84 | 74 | 3.0 | 7.0 | 0.00 | 0.00 | 0.00 | 67 | 1017.6 |
| 20260902153008 | 85 | 113 | 2.0 | 8.0 | 0.00 | 0.00 | 0.00 | 69 | 1017.8 |
| 20260902151514 | 85 | 86 | 4.0 | 9.0 | 0.00 | 0.00 | 0.00 | 67 | 1017.8 |
| 20260902150016 | 85 | 49 | 3.0 | 8.0 | 0.00 | 0.00 | 0.00 | 66 | 1017.8 |
| 20260902144527 | 86 | 89 | 3.0 | 7.0 | 0.00 | 0.00 | 0.00 | 66 | 1017.8 |
| 20260902143030 | 86 | 71 | 3.0 | 8.0 | 0.00 | 0.00 | 0.00 | 67 | 1017.8 |
| 20260902141511 | 86 | 94 | 3.0 | 9.0 | 0.00 | 0.00 | 0.00 | 66 | 1017.7 |
| 20260902140018 | 86 | 99 | 3.0 | 10.0 | 0.00 | 0.00 | 0.00 | 66 | 1017.5 |
| 20260902134524 | 87 | 97 | 2.0 | 9.0 | 0.00 | 0.00 | 0.00 | 65 | 1017.7 |
| 20260902133031 | 87 | 94 | 4.0 | 10.0 | 0.00 | 0.00 | 0.00 | 65 | 1017.8 |
| 20260902131529 | 86 | 61 | 2.0 | 10.0 | 0.00 | 0.00 | 0.00 | 66 | 1017.9 |
| 20260902130015 | 86 | 108 | 5.0 | 9.0 | 0.00 | 0.00 | 0.00 | 67 | 1018.1 |
| 20260902124524 | 86 | 83 | 3.0 | 9.0 | 0.00 | 0.00 | 0.00 | 67 | 1018.3 |
| 20260902123027 | 86 | 81 | 3.0 | 8.0 | 0.00 | 0.00 | 0.00 | 67 | 1018.4 |
| 20260902121507 | 85 | 105 | 3.0 | 8.0 | 0.00 | 0.00 | 0.00 | 67 | 1018.5 |
| 20260902120001 | 86 | 98 | 4.0 | 8.0 | 0.00 | 0.00 | 0.00 | 67 | 1018.6 |
| 20260902114503 | 85 | 70 | 3.0 | 9.0 | 0.00 | 0.00 | 0.00 | 69 | 1018.7 |
| 20260902113003 | 86 | 94 | 3.0 | 10.0 | 0.00 | 0.00 | 0.00 | 68 | 1018.8 |
| 20260902111507 | 87 | 189 | 2.0 | 8.0 | 0.00 | 0.00 | 0.00 | 67 | 1018.9 |
| 20260902110015 | 87 | 221 | 1.0 | 8.0 | 0.00 | 0.00 | 0.00 | 68 | 1019.0 |
| 20260902104505 | 86 | 5 | 2.0 | 8.0 | 0.00 | 0.00 | 0.00 | 67 | 1019.1 |
| 20260902103004 | 86 | 175 | 1.0 | 6.0 | 0.00 | 0.00 | 0.00 | 69 | 1019.1 |
| 20260902101503 | 85 | 307 | 2.0 | 6.0 | 0.00 | 0.00 | 0.00 | 70 | 1019.1 |
| 20260902100008 | 85 | 245 | 2.0 | 6.0 | 0.00 | 0.00 | 0.00 | 69 | 1019.1 |
| 20260902094519 | 85 | 51 | 1.0 | 6.0 | 0.00 | 0.00 | 0.00 | 68 | 1019.0 |
| 20260902093004 | 85 | 328 | 2.0 | 7.0 | 0.00 | 0.00 | 0.00 | 68 | 1019.1 |
| 20260902091505 | 85 | 52 | 1.0 | 7.0 | 0.00 | 0.00 | 0.00 | 68 | 1019.0 |
| 20260902090006 | 85 | 255 | 1.0 | 4.0 | 0.00 | 0.00 | 0.00 | 68 | 1019.0 |
| 20260902084512 | 84 | 300 | 0.0 | 6.0 | 0.00 | 0.00 | 0.00 | 68 | 1018.8 |
| 20260902083003 | 84 | 71 | 4.0 | 8.0 | 0.00 | 0.00 | 0.00 | 69 | 1018.8 |
| 20260902081512 | 83 | 100 | 1.0 | 6.0 | 0.00 | 0.00 | 0.00 | 70 | 1018.6 |
| 20260902080007 | 83 | 149 | 3.0 | 7.0 | 0.00 | 0.00 | 0.00 | 71 | 1018.4 |
| 20260902074505 | 83 | 89 | 5.0 | 8.0 | 0.00 | 0.00 | 0.00 | 71 | 1018.2 |
| 20260902073018 | 82 | 38 | 4.0 | 7.0 | 0.00 | 0.00 | 0.00 | 72 | 1018.1 |
| 20260902071508 | 82 | 63 | 4.0 | 7.0 | 0.00 | 0.00 | 0.00 | 72 | 1018.0 |
| 20260902070006 | 82 | 127 | 2.0 | 6.0 | 0.00 | 0.00 | 0.00 | 72 | 1018.1 |